createdAt,value
2022-12-20T00:00:12.388Z,73.66
2022-12-20T00:02:45.390Z,73.67
2022-12-20T00:05:18.375Z,73.48
2022-12-20T00:07:51.217Z,73.46
2022-12-20T00:10:25.426Z,73.54
2022-12-20T00:12:58.201Z,73.96
2022-12-20T00:15:31.514Z,74.00
2022-12-20T00:18:05.527Z,73.70
2022-12-20T00:20:38.497Z,73.98
2022-12-20T00:23:11.510Z,74.12
2022-12-20T00:25:45.786Z,74.20
2022-12-20T00:28:18.942Z,73.81
2022-12-20T00:30:54.926Z,73.68
2022-12-20T00:33:28.133Z,74.05
2022-12-20T00:36:01.383Z,74.13
2022-12-20T00:38:35.045Z,74.00
2022-12-20T00:41:11.273Z,73.77
2022-12-20T00:43:44.189Z,73.31
2022-12-20T00:46:18.972Z,73.39
2022-12-20T00:48:52.284Z,73.22
2022-12-20T00:51:27.229Z,73.28
2022-12-20T00:54:00.031Z,73.17
2022-12-20T00:56:34.303Z,73.15
2022-12-20T00:59:07.481Z,73.08
2022-12-20T01:01:40.701Z,73.33
2022-12-20T01:04:13.618Z,72.87
2022-12-20T01:06:46.464Z,73.26
2022-12-20T01:09:19.416Z,72.50
2022-12-20T01:11:53.920Z,72.95
2022-12-20T01:14:26.845Z,72.52
2022-12-20T01:17:00.910Z,72.99
2022-12-20T01:19:33.937Z,72.59
2022-12-20T01:22:06.785Z,72.24
2022-12-20T01:24:39.697Z,72.35
2022-12-20T01:27:13.984Z,72.18
2022-12-20T01:29:46.904Z,72.12
2022-12-20T01:32:19.721Z,72.18
2022-12-20T01:34:52.794Z,71.97
2022-12-20T01:37:25.762Z,72.15
2022-12-20T01:39:58.557Z,72.41
2022-12-20T01:42:33.022Z,72.33
2022-12-20T01:45:10.416Z,72.07
2022-12-20T01:47:43.251Z,71.82
2022-12-20T01:50:16.077Z,72.03
2022-12-20T01:52:49.535Z,72.26
2022-12-20T01:55:26.645Z,72.16
2022-12-20T01:58:03.150Z,72.10
2022-12-20T02:00:36.671Z,72.51
2022-12-20T02:03:13.752Z,72.76
2022-12-20T02:05:47.827Z,72.40
2022-12-20T02:08:21.738Z,72.93
2022-12-20T02:11:10.902Z,72.92
2022-12-20T02:13:50.428Z,73.00
2022-12-20T02:16:27.442Z,72.69
2022-12-20T02:19:06.695Z,72.94
2022-12-20T02:21:43.948Z,72.71
2022-12-20T02:24:58.715Z,72.41
2022-12-20T02:27:57.646Z,72.45
2022-12-20T02:30:36.276Z,72.94
2022-12-20T02:33:12.624Z,72.25
2022-12-20T02:35:45.456Z,72.35
2022-12-20T02:38:30.585Z,72.04
2022-12-20T02:41:08.223Z,72.25
2022-12-20T02:44:02.093Z,71.43
2022-12-20T02:46:38.172Z,71.80
2022-12-20T02:49:15.035Z,71.50
2022-12-20T02:51:51.748Z,71.58
2022-12-20T02:54:25.805Z,72.12
2022-12-20T02:57:03.668Z,72.38
2022-12-20T02:59:42.760Z,72.06
2022-12-20T03:02:17.384Z,72.05
2022-12-20T03:04:51.796Z,72.42
2022-12-20T03:07:24.682Z,72.08
2022-12-20T03:09:57.567Z,72.56
2022-12-20T03:12:30.442Z,72.34
2022-12-20T03:15:03.300Z,72.69
2022-12-20T03:17:37.636Z,72.66
2022-12-20T03:20:12.314Z,72.28
2022-12-20T03:22:45.204Z,72.25
2022-12-20T03:25:18.423Z,72.27
2022-12-20T03:27:51.514Z,72.24
2022-12-20T03:30:24.526Z,71.90
2022-12-20T03:32:59.667Z,72.15
2022-12-20T03:35:32.677Z,71.83
2022-12-20T03:38:05.612Z,72.04
2022-12-20T03:40:38.517Z,71.85
2022-12-20T03:43:11.353Z,72.05
2022-12-20T03:45:44.148Z,71.93
2022-12-20T03:48:18.467Z,71.98
2022-12-20T03:50:51.365Z,71.74
2022-12-20T03:53:24.190Z,71.80
2022-12-20T03:55:57.145Z,72.07
2022-12-20T03:58:30.034Z,71.95
2022-12-20T04:01:03.107Z,71.93
2022-12-20T04:03:37.727Z,72.05
2022-12-20T04:06:10.555Z,72.05
2022-12-20T04:08:43.582Z,72.05
2022-12-20T04:11:19.553Z,71.93
2022-12-20T04:13:54.552Z,72.16
2022-12-20T04:16:29.434Z,71.83
2022-12-20T04:19:04.108Z,71.81
2022-12-20T04:21:37.408Z,71.90
2022-12-20T04:24:10.586Z,71.96
2022-12-20T04:26:43.516Z,71.72
2022-12-20T04:29:16.588Z,71.94
2022-12-20T04:31:49.529Z,72.25
2022-12-20T04:34:23.806Z,72.61
2022-12-20T04:36:56.784Z,72.95
2022-12-20T04:39:29.947Z,73.45
2022-12-20T04:42:02.826Z,73.61
2022-12-20T04:44:35.647Z,73.72
2022-12-20T04:47:10.235Z,74.27
2022-12-20T04:49:44.504Z,74.08
2022-12-20T04:52:34.766Z,73.97
2022-12-20T04:55:08.029Z,74.58
2022-12-20T04:57:40.809Z,74.22
2022-12-20T05:00:15.395Z,74.01
2022-12-20T05:02:48.541Z,74.03
2022-12-20T05:05:22.956Z,73.36
2022-12-20T05:07:56.457Z,73.24
2022-12-20T05:10:29.455Z,72.85
2022-12-20T05:13:08.811Z,72.80
2022-12-20T05:15:43.340Z,72.58
2022-12-20T05:18:16.282Z,72.23
2022-12-20T05:21:10.785Z,72.75
2022-12-20T05:24:00.833Z,72.59
2022-12-20T05:26:37.088Z,72.76
2022-12-20T05:29:10.022Z,72.83
2022-12-20T05:31:42.855Z,72.53
2022-12-20T05:34:15.909Z,72.87
2022-12-20T05:36:50.404Z,72.96
2022-12-20T05:39:23.190Z,72.85
2022-12-20T05:41:56.145Z,73.13
2022-12-20T05:44:28.969Z,72.81
2022-12-20T05:47:01.995Z,73.28
2022-12-20T05:49:34.959Z,73.08
2022-12-20T05:52:09.245Z,73.22
2022-12-20T05:54:42.054Z,72.86
2022-12-20T05:57:16.268Z,72.88
2022-12-20T05:59:49.433Z,72.77
2022-12-20T06:02:22.646Z,72.95
2022-12-20T06:04:55.729Z,73.12
2022-12-20T06:07:30.080Z,73.21
2022-12-20T06:10:03.019Z,73.12
2022-12-20T06:12:36.105Z,73.05
2022-12-20T06:15:10.855Z,73.07
2022-12-20T06:17:43.776Z,72.57
2022-12-20T06:20:16.745Z,72.67
2022-12-20T06:22:51.027Z,72.28
2022-12-20T06:25:23.957Z,72.33
2022-12-20T06:27:57.633Z,72.33
2022-12-20T06:30:33.970Z,72.07
2022-12-20T06:33:07.439Z,72.05
2022-12-20T06:35:40.212Z,71.77
2022-12-20T06:38:14.519Z,71.85
2022-12-20T06:40:47.362Z,71.49
2022-12-20T06:43:20.227Z,71.52
2022-12-20T06:45:53.360Z,71.20
2022-12-20T06:48:26.270Z,71.57
2022-12-20T06:50:59.159Z,71.60
2022-12-20T06:53:33.864Z,72.06
2022-12-20T06:56:07.534Z,72.17
2022-12-20T06:58:40.524Z,72.51
2022-12-20T07:01:13.432Z,72.58
2022-12-20T07:03:46.640Z,72.83
2022-12-20T07:06:19.498Z,72.83
2022-12-20T07:08:53.742Z,73.08
2022-12-20T07:11:26.715Z,73.54
2022-12-20T07:14:00.115Z,74.07
2022-12-20T07:16:33.272Z,74.25
2022-12-20T07:19:06.277Z,74.48
2022-12-20T07:21:39.269Z,74.78
2022-12-20T07:24:13.500Z,75.33
2022-12-20T07:26:46.624Z,75.20
2022-12-20T07:29:19.683Z,75.00
2022-12-20T07:31:53.054Z,75.17
2022-12-20T07:34:26.081Z,74.98
2022-12-20T07:36:58.971Z,75.00
2022-12-20T07:39:33.489Z,74.86
2022-12-20T07:42:06.526Z,74.79
2022-12-20T07:44:39.491Z,74.71
2022-12-20T07:47:12.321Z,74.45
2022-12-20T07:49:45.306Z,74.51
2022-12-20T07:52:20.982Z,74.47
2022-12-20T07:54:58.469Z,74.53
2022-12-20T07:57:36.745Z,75.01
2022-12-20T08:00:11.772Z,74.72
2022-12-20T08:02:50.125Z,75.10
2022-12-20T08:05:24.402Z,75.28
2022-12-20T08:08:00.241Z,75.12
2022-12-20T08:10:34.775Z,74.93
2022-12-20T08:13:08.069Z,74.95
2022-12-20T08:15:41.122Z,75.04
2022-12-20T08:18:14.259Z,75.09
2022-12-20T08:20:47.146Z,75.14
2022-12-20T08:23:20.378Z,75.12
2022-12-20T08:25:54.592Z,74.79
2022-12-20T08:28:27.823Z,74.66
2022-12-20T08:31:04.083Z,75.04
2022-12-20T08:33:38.389Z,74.33
2022-12-20T08:36:13.956Z,74.57
2022-12-20T08:38:46.865Z,74.24
2022-12-20T08:41:21.117Z,74.98
2022-12-20T08:43:54.161Z,74.21
2022-12-20T08:46:27.040Z,74.61
2022-12-20T08:48:59.943Z,74.09
2022-12-20T08:51:33.183Z,73.99
2022-12-20T08:54:06.209Z,74.29
2022-12-20T08:56:40.442Z,73.90
2022-12-20T08:59:13.495Z,74.08
2022-12-20T09:01:46.884Z,74.57
2022-12-20T09:04:19.884Z,74.80
2022-12-20T09:06:52.811Z,75.27
2022-12-20T09:09:25.653Z,74.47
2022-12-20T09:11:59.914Z,74.08
2022-12-20T09:14:32.777Z,74.79
2022-12-20T09:17:06.403Z,74.69
2022-12-20T09:19:39.278Z,74.24
2022-12-20T09:22:12.247Z,74.23
2022-12-20T09:24:45.420Z,73.85
2022-12-20T09:27:20.091Z,74.25
2022-12-20T09:29:52.916Z,74.08
2022-12-20T09:32:25.740Z,73.97
2022-12-20T09:34:58.836Z,74.24
2022-12-20T09:37:32.332Z,74.19
2022-12-20T09:40:06.071Z,73.48
2022-12-20T09:42:40.361Z,73.72
2022-12-20T09:45:27.174Z,73.46
2022-12-20T09:48:00.020Z,73.17
2022-12-20T09:50:45.086Z,73.42
2022-12-20T09:53:28.993Z,73.06
2022-12-20T09:56:06.222Z,72.99
2022-12-20T09:58:56.855Z,72.75
2022-12-20T10:01:38.229Z,73.57
2022-12-20T10:04:21.311Z,72.88
2022-12-20T10:07:14.336Z,72.91
2022-12-20T10:10:06.872Z,72.87
2022-12-20T10:12:48.333Z,72.62
2022-12-20T10:15:28.723Z,72.83
2022-12-20T10:18:20.710Z,72.60
2022-12-20T10:20:58.443Z,72.96
2022-12-20T10:23:38.578Z,71.95
2022-12-20T10:26:14.205Z,72.20
2022-12-20T10:28:52.221Z,72.12
2022-12-20T10:31:28.696Z,71.63
2022-12-20T10:34:01.504Z,71.74
2022-12-20T10:36:35.994Z,71.92
2022-12-20T10:39:11.357Z,71.93
2022-12-20T10:41:52.245Z,71.59
2022-12-20T10:44:28.299Z,72.01
2022-12-20T10:47:02.882Z,72.26
2022-12-20T10:49:38.053Z,72.73
2022-12-20T10:52:14.492Z,72.78
2022-12-20T10:54:48.417Z,73.21
2022-12-20T10:57:24.086Z,73.15
2022-12-20T11:00:00.266Z,73.60
2022-12-20T11:02:41.542Z,72.93
2022-12-20T11:05:22.637Z,73.10
2022-12-20T11:10:50.271Z,72.54
2022-12-20T11:13:25.873Z,72.45
2022-12-20T11:16:01.593Z,72.72
2022-12-20T11:18:45.343Z,72.38
2022-12-20T11:21:28.730Z,72.42
2022-12-20T11:24:09.007Z,72.38
2022-12-20T11:26:59.273Z,71.47
2022-12-20T11:29:56.058Z,70.88
2022-12-20T11:32:48.306Z,71.50
2022-12-20T11:35:31.407Z,71.22
2022-12-20T11:38:14.383Z,71.43
2022-12-20T11:40:52.965Z,71.41
2022-12-20T11:44:00.999Z,71.54
2022-12-20T11:46:45.712Z,71.76
2022-12-20T11:49:38.708Z,71.60
2022-12-20T11:52:20.908Z,71.88
2022-12-20T11:55:03.393Z,71.72
2022-12-20T11:58:09.523Z,71.45
2022-12-20T12:00:37.757Z,71.90
2022-12-20T12:03:17.637Z,71.51
2022-12-20T12:05:55.995Z,71.52
2022-12-20T12:08:39.856Z,71.18
2022-12-20T12:12:04.577Z,71.47
2022-12-20T12:14:19.244Z,71.06
2022-12-20T12:16:55.338Z,71.38
2022-12-20T12:19:31.907Z,71.56
2022-12-20T12:22:12.239Z,71.02
2022-12-20T12:24:50.331Z,70.69
2022-12-20T12:27:25.858Z,70.98
2022-12-20T12:30:00.305Z,70.64
2022-12-20T12:32:39.250Z,69.78
2022-12-20T12:35:53.856Z,69.21
2022-12-20T12:39:06.282Z,68.85
2022-12-20T12:42:19.626Z,68.14
2022-12-20T12:44:56.482Z,68.49
2022-12-20T12:47:36.501Z,68.48
2022-12-20T12:50:18.916Z,68.83
2022-12-20T12:52:55.496Z,68.94
2022-12-20T12:55:43.519Z,69.08
2022-12-20T12:58:33.939Z,69.47
2022-12-20T13:01:10.739Z,70.05
2022-12-20T13:04:10.395Z,70.05
2022-12-20T13:07:05.861Z,70.28
2022-12-20T13:09:42.563Z,70.84
2022-12-20T13:12:48.850Z,70.95
2022-12-20T13:15:52.794Z,71.12
2022-12-20T13:18:27.511Z,72.25
2022-12-20T13:21:30.535Z,71.99
2022-12-20T13:24:42.543Z,72.42
2022-12-20T13:27:33.589Z,72.34
2022-12-20T13:30:30.629Z,72.49
2022-12-20T13:33:39.235Z,72.85
2022-12-20T13:36:33.902Z,72.72
2022-12-20T13:39:34.337Z,72.84
2022-12-20T13:42:23.857Z,72.93
2022-12-20T13:44:57.183Z,73.07
2022-12-20T13:47:36.024Z,73.06
2022-12-20T13:50:31.095Z,72.58
2022-12-20T13:53:05.705Z,72.87
2022-12-20T13:55:39.997Z,73.02
2022-12-20T13:58:17.153Z,73.72
2022-12-20T14:00:51.417Z,73.94
2022-12-20T14:03:27.750Z,73.87
2022-12-20T14:06:04.283Z,74.17
2022-12-20T14:08:40.206Z,74.81
2022-12-20T14:11:14.673Z,74.90
2022-12-20T14:13:53.994Z,74.99
2022-12-20T14:16:28.733Z,75.29
2022-12-20T14:19:03.986Z,75.57
2022-12-20T14:21:41.524Z,75.34
2022-12-20T14:24:18.473Z,75.50
2022-12-20T14:26:54.214Z,75.69
2022-12-20T14:29:32.697Z,75.53
2022-12-20T14:32:06.586Z,75.50
2022-12-20T14:34:44.436Z,75.02
2022-12-20T14:37:30.989Z,74.68
2022-12-20T14:40:17.665Z,74.26
2022-12-20T14:42:50.640Z,74.41
2022-12-20T14:45:26.867Z,74.21
2022-12-20T14:48:03.558Z,73.96
2022-12-20T14:50:37.953Z,74.09
2022-12-20T14:53:21.248Z,73.43
2022-12-20T14:55:54.110Z,74.07
2022-12-20T14:58:30.059Z,73.95
2022-12-20T15:01:05.439Z,74.12
2022-12-20T15:03:50.885Z,73.51
2022-12-20T15:06:35.593Z,73.77
2022-12-20T15:09:09.916Z,73.91
2022-12-20T15:11:46.707Z,73.68
2022-12-20T15:14:35.120Z,72.76
2022-12-20T15:17:13.336Z,72.91
2022-12-20T15:19:46.129Z,73.13
2022-12-20T15:22:21.590Z,73.08
2022-12-20T15:24:55.782Z,73.09
2022-12-20T15:27:28.602Z,73.36
2022-12-20T15:30:01.345Z,73.50
2022-12-20T15:32:34.273Z,73.61
2022-12-20T15:35:13.552Z,73.17
2022-12-20T15:37:46.428Z,72.93
2022-12-20T15:40:20.716Z,72.36
2022-12-20T15:42:53.555Z,72.13
2022-12-20T15:45:27.843Z,72.19
2022-12-20T15:48:00.707Z,71.93
2022-12-20T15:50:33.486Z,71.86
2022-12-20T15:53:06.300Z,72.11
2022-12-20T15:55:41.104Z,72.60
2022-12-20T15:58:13.963Z,72.91
2022-12-20T16:00:47.585Z,72.94
2022-12-20T16:03:22.614Z,73.20
2022-12-20T16:05:56.367Z,73.16
2022-12-20T16:08:29.192Z,73.68
2022-12-20T16:11:03.551Z,73.74
2022-12-20T16:13:36.434Z,74.09
2022-12-20T16:16:16.805Z,74.15
2022-12-20T16:18:49.674Z,74.68
2022-12-20T16:21:25.039Z,74.66
2022-12-20T16:23:57.818Z,74.96
2022-12-20T16:26:32.095Z,75.01
2022-12-20T16:29:05.172Z,75.09
2022-12-20T16:31:39.898Z,75.42
2022-12-20T16:34:14.922Z,74.83
2022-12-20T16:36:47.873Z,74.81
2022-12-20T16:39:21.155Z,74.56
2022-12-20T16:41:55.933Z,74.89
2022-12-20T16:44:28.855Z,74.66
2022-12-20T16:47:01.696Z,75.10
2022-12-20T16:49:34.602Z,74.63
2022-12-20T16:52:15.285Z,75.20
2022-12-20T16:54:48.244Z,75.18
2022-12-20T16:57:22.520Z,74.58
2022-12-20T16:59:55.276Z,74.54
2022-12-20T17:02:30.592Z,74.08
2022-12-20T17:05:03.606Z,74.07
2022-12-20T17:07:41.338Z,74.41
2022-12-20T17:10:14.621Z,74.50
2022-12-20T17:12:49.140Z,74.41
2022-12-20T17:15:25.742Z,74.78
2022-12-20T17:17:59.155Z,74.52
2022-12-20T17:20:36.663Z,74.26
2022-12-20T17:26:06.641Z,74.66
2022-12-20T17:28:40.990Z,74.50
2022-12-20T17:31:22.096Z,74.33
2022-12-20T17:33:55.359Z,74.21
2022-12-20T17:36:33.072Z,74.54
2022-12-20T17:39:12.099Z,74.15
2022-12-20T17:41:46.145Z,73.88
2022-12-20T17:44:22.285Z,73.77
2022-12-20T17:46:55.853Z,74.02
2022-12-20T17:49:28.754Z,74.29
2022-12-20T17:52:01.589Z,74.14
2022-12-20T17:54:40.117Z,74.54
2022-12-20T17:57:15.359Z,74.26
2022-12-20T17:59:49.854Z,73.78
2022-12-20T18:02:25.394Z,74.33
2022-12-20T18:04:58.523Z,73.89
2022-12-20T18:07:31.297Z,73.97
2022-12-20T18:10:04.289Z,74.28
2022-12-20T18:12:37.744Z,73.95
2022-12-20T18:15:13.386Z,74.11
2022-12-20T18:17:46.205Z,73.97
2022-12-20T18:20:19.105Z,73.81
2022-12-20T18:22:52.006Z,73.64
2022-12-20T18:25:24.770Z,73.58
2022-12-20T18:27:57.589Z,73.63
2022-12-20T18:30:31.818Z,73.83
2022-12-20T18:33:04.741Z,73.75
2022-12-20T18:35:37.546Z,73.41
2022-12-20T18:38:10.446Z,73.70
2022-12-20T18:40:45.349Z,73.08
2022-12-20T18:43:18.147Z,73.75
2022-12-20T18:45:52.416Z,73.44
2022-12-20T18:48:25.807Z,73.61
2022-12-20T18:51:04.183Z,73.32
2022-12-20T18:53:39.387Z,73.65
2022-12-20T18:56:15.163Z,73.22
2022-12-20T18:58:49.304Z,73.04
2022-12-20T19:01:27.026Z,73.27
2022-12-20T19:04:02.671Z,73.49
2022-12-20T19:06:36.411Z,73.48
2022-12-20T19:09:11.685Z,73.27
2022-12-20T19:11:44.610Z,73.42
2022-12-20T19:14:17.437Z,73.76
2022-12-20T19:16:52.151Z,73.41
2022-12-20T19:19:25.016Z,73.84
2022-12-20T19:21:57.776Z,73.47
2022-12-20T19:24:30.542Z,73.39
2022-12-20T19:27:04.577Z,73.22
2022-12-20T19:29:37.410Z,73.77
2022-12-20T19:32:11.701Z,73.67
2022-12-20T19:34:44.452Z,73.34
2022-12-20T19:37:18.272Z,73.68
2022-12-20T19:39:51.103Z,73.13
2022-12-20T19:42:25.135Z,73.25
2022-12-20T19:44:58.325Z,72.77
2022-12-20T19:47:33.694Z,73.36
2022-12-20T19:50:09.248Z,72.84
2022-12-20T19:52:42.024Z,73.33
2022-12-20T19:55:15.018Z,73.05
2022-12-20T19:57:47.851Z,73.39
2022-12-20T20:00:21.408Z,73.45
2022-12-20T20:02:55.872Z,73.26
2022-12-20T20:05:28.748Z,73.65
2022-12-20T20:08:01.612Z,73.69
2022-12-20T20:10:34.453Z,73.44
2022-12-20T20:13:07.351Z,73.67
2022-12-20T20:15:40.352Z,73.96
2022-12-20T20:18:14.747Z,73.54
2022-12-20T20:20:47.610Z,73.63
2022-12-20T20:23:20.913Z,74.21
2022-12-20T20:25:56.841Z,74.29
2022-12-20T20:28:33.253Z,73.79
2022-12-20T20:31:10.214Z,73.98
2022-12-20T20:33:44.927Z,73.87
2022-12-20T20:36:19.898Z,74.11
2022-12-20T20:38:53.281Z,73.83
2022-12-20T20:41:26.377Z,74.24
2022-12-20T20:43:59.490Z,74.34
2022-12-20T20:46:32.432Z,74.12
2022-12-20T20:49:06.946Z,74.43
2022-12-20T20:51:40.083Z,74.02
2022-12-20T20:54:13.231Z,74.19
2022-12-20T20:56:46.089Z,74.46
2022-12-20T20:59:19.066Z,74.72
2022-12-20T21:01:52.116Z,74.05
2022-12-20T21:04:26.427Z,74.00
2022-12-20T21:06:59.390Z,74.51
2022-12-20T21:09:32.651Z,74.54
2022-12-20T21:12:05.840Z,74.50
2022-12-20T21:15:19.975Z,74.04
2022-12-20T21:17:32.365Z,74.67
2022-12-20T21:20:08.195Z,74.46
2022-12-20T21:22:41.131Z,74.42
2022-12-20T21:25:13.918Z,73.74
2022-12-20T21:27:46.991Z,73.75
2022-12-20T21:30:19.900Z,73.25
2022-12-20T21:32:52.791Z,73.59
2022-12-20T21:35:27.148Z,73.56
2022-12-20T21:38:01.839Z,73.97
2022-12-20T21:40:35.154Z,73.52
2022-12-20T21:43:08.134Z,74.18
2022-12-20T21:45:40.873Z,74.05
2022-12-20T21:48:13.735Z,73.51
2022-12-20T21:50:48.223Z,73.83
2022-12-20T21:53:21.053Z,73.69
2022-12-20T21:55:55.702Z,73.98
2022-12-20T21:58:30.640Z,74.40
2022-12-20T22:01:05.372Z,74.05
2022-12-20T22:03:38.763Z,73.56
2022-12-20T22:06:13.665Z,73.62
2022-12-20T22:08:46.536Z,73.75
2022-12-20T22:11:19.892Z,73.95
2022-12-20T22:13:55.675Z,73.63
2022-12-20T22:16:32.035Z,74.34
2022-12-20T22:19:05.232Z,73.57
2022-12-20T22:21:39.511Z,73.74
2022-12-20T22:24:12.290Z,74.14
2022-12-20T22:26:45.157Z,74.19
2022-12-20T22:29:18.014Z,73.57
2022-12-20T22:31:52.585Z,74.28
2022-12-20T22:34:25.778Z,74.22
2022-12-20T22:36:59.974Z,73.63
2022-12-20T22:39:32.903Z,73.99
2022-12-20T22:42:05.970Z,74.33
2022-12-20T22:44:38.864Z,74.27
2022-12-20T22:47:12.235Z,74.17
2022-12-20T22:49:45.012Z,74.71
2022-12-20T22:52:21.010Z,74.60
2022-12-20T22:54:53.818Z,74.47
2022-12-20T22:57:27.692Z,74.22
2022-12-20T23:00:00.466Z,74.32
2022-12-20T23:02:33.602Z,74.51
2022-12-20T23:05:07.095Z,74.28
2022-12-20T23:07:41.359Z,74.71
2022-12-20T23:10:34.443Z,74.81
2022-12-20T23:13:24.485Z,74.94
2022-12-20T23:15:57.359Z,74.72
2022-12-20T23:18:30.230Z,75.14
2022-12-20T23:21:20.437Z,75.20
2022-12-20T23:23:56.366Z,74.87
2022-12-20T23:26:29.346Z,75.08
2022-12-20T23:29:04.053Z,75.40
2022-12-20T23:31:37.202Z,75.59
2022-12-20T23:34:10.095Z,75.26
2022-12-20T23:36:42.911Z,75.55
2022-12-20T23:39:17.363Z,75.73
2022-12-20T23:41:50.220Z,76.27
2022-12-20T23:44:23.249Z,76.82
2022-12-20T23:46:58.042Z,77.19
2022-12-20T23:49:30.880Z,77.54
2022-12-20T23:52:03.711Z,77.98
2022-12-20T23:54:37.895Z,78.06
2022-12-20T23:57:12.255Z,78.22
2022-12-20T23:59:45.120Z,78.58
